VLVT/VTE METAR and TAF weather

Enter ICAO airport designator
Station Type Date Time Source
VLVT METAR 2021/10/22 11:00 UTC NOAA

VLVT 221100Z 18002KT 6000 SCT040 26/24 Q1013 NOSIG


Station Type Date Time Source
VLVT Decoded METAR 2021/10/22 11:00 UTC NOAA

Vientiane, Laos (VLVT) 17-57N 102-34E 171M
Oct 22, 2021 - 07:00 AM EDT / 2021.10.22 1100 UTC
Wind: from the S (180 degrees) at 2 MPH (2 KT):0
Visibility: 3 mile(s):0
Sky conditions: partly cloudy
Temperature: 78 F (26 C)
Dew Point: 75 F (24 C)
Relative Humidity: 88%
Pressure (altimeter): 29.91 in. Hg (1013 hPa)
ob: VLVT 221100Z 18002KT 6000 SCT040 26/24 Q1013 NOSIG
cycle: 11

Station Type Date Time Source
VLVT TAF 2021/10/22 12:39 UTC NOAA

TAF TAF VLVT 221100Z 2212/2312 09004KT 4000 BR SCT010 BKN040

Example: see airport list